Time;durP1;ratioP1;P1;durP2;ratioP2;P2;SDS_P1;SDS_P2;PMS_P1;PMS_P2;Temp;Humidity;BMP_temperature;BMP_pressure;BME280_temperature;BME280_humidity;BME280_pressure;Samples;Min_cycle;Max_cycle;Signal;HPM_P1;HPM_P2
2022/06/13 00:00:19;;;;;;;3.80;1.02;;;;;;;;;;5025327;28;20056;-78
2022/06/13 00:02:46;;;;;;;4.50;1.25;;;;;;;;;;5031239;28;20071;-78
2022/06/13 00:05:12;;;;;;;5.05;0.95;;;;;;;;;;5014609;28;20029;-77
2022/06/13 00:07:37;;;;;;;3.85;1.10;;;;;;;;;;5014884;28;20034;-77
2022/06/13 00:10:03;;;;;;;3.40;1.05;;;;;;;;;;5007020;28;20029;-77
2022/06/13 00:12:28;;;;;;;5.75;1.15;;;;;;;;;;5016163;28;20048;-78
2022/06/13 00:14:54;;;;;;;5.60;1.38;;;;;;;;;;5026052;28;20057;-78
2022/06/13 00:17:19;;;;;;;5.75;1.20;;;;;;;;;;5018153;28;20030;-78
2022/06/13 00:19:44;;;;;;;3.05;1.02;;;;;;;;;;5000826;28;20038;-77
2022/06/13 00:22:10;;;;;;;5.35;1.38;;;;;;;;;;5008675;28;20049;-77
2022/06/13 00:24:36;;;;;;;5.65;1.45;;;;;;;;;;5018830;28;20556;-77
2022/06/13 00:27:02;;;;;;;5.78;1.45;;;;;;;;;;5027656;28;20030;-78
2022/06/13 00:29:27;;;;;;;3.80;1.20;;;;;;;;;;5016975;28;20056;-77
2022/06/13 00:31:53;;;;;;;4.57;1.30;;;;;;;;;;5008432;28;20400;-78
2022/06/13 00:34:18;;;;;;;4.57;1.20;;;;;;;;;;5005019;28;20099;-78
2022/06/13 00:36:43;;;;;;;4.28;1.02;;;;;;;;;;5001821;28;20054;-77
2022/06/13 00:39:09;;;;;;;4.40;1.35;;;;;;;;;;5020239;28;20033;-78
2022/06/13 00:41:38;;;;;;;2.92;0.90;;;;;;;;;;5023113;28;20518;-77
2022/06/13 00:44:31;;;;;;;6.20;1.20;;;;;;;;;;5020124;28;20545;-77
2022/06/13 00:46:56;;;;;;;2.95;0.98;;;;;;;;;;5019303;28;20092;-76
2022/06/13 00:49:28;;;;;;;5.03;1.20;;;;;;;;;;5020584;28;20041;-75
2022/06/13 00:52:17;;;;;;;5.57;0.90;;;;;;;;;;5018407;28;20033;-75
2022/06/13 00:54:43;;;;;;;6.45;1.33;;;;;;;;;;5035060;28;20042;-75
2022/06/13 00:57:13;;;;;;;5.07;1.10;;;;;;;;;;5018450;28;20044;-76
2022/06/13 00:59:39;;;;;;;3.58;1.30;;;;;;;;;;5021474;28;20048;-75
2022/06/13 01:02:06;;;;;;;3.45;1.00;;;;;;;;;;5006899;28;20069;-77
2022/06/13 01:04:32;;;;;;;6.77;1.47;;;;;;;;;;5016968;28;20041;-77
2022/06/13 01:06:57;;;;;;;3.72;1.30;;;;;;;;;;5016560;28;20285;-75
2022/06/13 01:11:16;;;;;;;3.70;1.05;;;;;;;;;;5005631;28;20129;-76
2022/06/13 01:12:09;;;;;;;6.43;1.35;;;;;;;;;;5017330;28;20045;-76
2022/06/13 01:15:07;;;;;;;3.72;1.10;;;;;;;;;;5008882;28;20037;-76
2022/06/13 01:17:47;;;;;;;4.85;1.30;;;;;;;;;;5013350;28;20042;-76
2022/06/13 01:20:27;;;;;;;3.20;1.35;;;;;;;;;;5018953;28;20030;-76
2022/06/13 01:23:14;;;;;;;4.05;0.98;;;;;;;;;;5009626;28;20064;-76
2022/06/13 01:26:00;;;;;;;4.22;1.00;;;;;;;;;;5038472;28;20041;-76
2022/06/13 01:28:45;;;;;;;4.82;1.20;;;;;;;;;;5005715;28;20150;-76
2022/06/13 01:31:25;;;;;;;4.07;1.65;;;;;;;;;;5037595;28;20041;-76
2022/06/13 01:34:15;;;;;;;2.97;1.08;;;;;;;;;;5025656;28;20403;-76
2022/06/13 01:37:25;;;;;;;7.38;1.27;;;;;;;;;;5038103;28;20079;-76
2022/06/13 01:40:09;;;;;;;4.88;1.30;;;;;;;;;;4976424;28;20036;-76
2022/06/13 01:43:00;;;;;;;4.40;1.33;;;;;;;;;;5037374;28;20055;-76
2022/06/13 01:45:31;;;;;;;5.05;1.40;;;;;;;;;;5005766;28;20039;-76
2022/06/13 01:48:17;;;;;;;5.32;1.48;;;;;;;;;;5019542;28;20044;-77
2022/06/13 01:50:51;;;;;;;3.77;1.30;;;;;;;;;;5037081;28;20045;-76
2022/06/13 01:53:28;;;;;;;4.50;1.10;;;;;;;;;;5008266;28;20124;-77
2022/06/13 01:56:00;;;;;;;3.67;1.38;;;;;;;;;;5022382;28;20399;-76
2022/06/13 01:58:34;;;;;;;3.47;1.30;;;;;;;;;;5021733;28;20037;-76
2022/06/13 02:01:08;;;;;;;5.68;1.52;;;;;;;;;;5026817;28;20496;-75
2022/06/13 02:03:39;;;;;;;5.82;1.45;;;;;;;;;;5022644;28;20041;-76
2022/06/13 02:06:09;;;;;;;6.35;1.35;;;;;;;;;;5010908;28;20681;-76
2022/06/13 02:08:38;;;;;;;5.68;1.60;;;;;;;;;;5006676;28;20149;-76
2022/06/13 02:11:34;;;;;;;7.32;1.60;;;;;;;;;;5007767;28;20033;-76
2022/06/13 02:14:03;;;;;;;3.25;1.23;;;;;;;;;;4976827;28;20096;-76
2022/06/13 02:16:35;;;;;;;6.50;1.50;;;;;;;;;;5023927;28;20044;-76
2022/06/13 02:19:20;;;;;;;3.28;1.30;;;;;;;;;;5022892;28;20477;-76
2022/06/13 02:21:50;;;;;;;8.13;1.30;;;;;;;;;;5003364;28;20037;-75
2022/06/13 02:24:23;;;;;;;5.70;1.38;;;;;;;;;;5003217;28;20041;-76
2022/06/13 02:26:51;;;;;;;5.65;1.30;;;;;;;;;;5006684;28;20049;-76
2022/06/13 02:29:21;;;;;;;5.18;1.60;;;;;;;;;;5000999;28;20090;-76
2022/06/13 02:31:51;;;;;;;5.25;1.38;;;;;;;;;;5027303;28;20036;-76
2022/06/13 02:34:29;;;;;;;5.35;1.20;;;;;;;;;;5004473;28;20503;-76
2022/06/13 02:37:10;;;;;;;7.03;1.30;;;;;;;;;;5026762;28;20033;-76
2022/06/13 02:39:46;;;;;;;4.03;1.17;;;;;;;;;;5035976;28;20048;-76
2022/06/13 02:42:29;;;;;;;2.60;1.02;;;;;;;;;;5026780;28;20535;-75
2022/06/13 02:45:08;;;;;;;3.97;1.40;;;;;;;;;;5005679;28;20039;-76
2022/06/13 02:47:45;;;;;;;5.00;1.40;;;;;;;;;;5010930;28;20033;-75
2022/06/13 02:50:17;;;;;;;3.95;1.20;;;;;;;;;;5036375;28;20041;-77
2022/06/13 02:53:00;;;;;;;4.15;1.20;;;;;;;;;;5002122;28;20068;-76
2022/06/13 02:55:26;;;;;;;3.50;1.10;;;;;;;;;;5006399;28;20033;-75
2022/06/13 02:57:57;;;;;;;2.92;1.20;;;;;;;;;;5022017;28;20087;-75
2022/06/13 03:00:25;;;;;;;6.22;1.45;;;;;;;;;;5017989;28;20377;-75
2022/06/13 03:03:00;;;;;;;4.50;1.27;;;;;;;;;;5035501;28;20029;-76
2022/06/13 03:05:38;;;;;;;4.40;1.33;;;;;;;;;;5034512;28;20438;-76
2022/06/13 03:08:03;;;;;;;;;;;;;;;;;;5035290;28;20040;-76
2022/06/13 03:10:43;;;;;;;2.72;0.98;;;;;;;;;;5035603;28;19916;-76
2022/06/13 03:13:55;;;;;;;3.13;1.20;;;;;;;;;;5009860;28;20037;-76
2022/06/13 03:16:31;;;;;;;3.25;1.20;;;;;;;;;;4942854;28;20050;-76
2022/06/13 03:19:02;;;;;;;6.07;1.40;;;;;;;;;;5011862;28;20037;-76
2022/06/13 03:21:33;;;;;;;5.22;1.40;;;;;;;;;;4999362;28;20037;-76
2022/06/13 03:24:13;;;;;;;3.67;1.02;;;;;;;;;;5001223;28;20043;-76
2022/06/13 03:26:46;;;;;;;3.67;1.30;;;;;;;;;;5007516;28;20044;-76
2022/06/13 03:29:23;;;;;;;3.70;1.20;;;;;;;;;;5025562;28;20510;-76
2022/06/13 03:31:51;;;;;;;6.07;1.42;;;;;;;;;;5022776;28;20037;-76
2022/06/13 03:34:21;;;;;;;4.43;1.30;;;;;;;;;;5032930;28;20076;-76
2022/06/13 03:37:11;;;;;;;3.78;1.40;;;;;;;;;;5021353;28;20040;-76
2022/06/13 03:39:46;;;;;;;5.00;1.23;;;;;;;;;;5041058;28;20036;-76
2022/06/13 03:42:15;;;;;;;4.93;1.25;;;;;;;;;;5037347;28;20048;-76
2022/06/13 03:44:47;;;;;;;5.28;1.40;;;;;;;;;;5026159;28;20033;-76
2022/06/13 03:47:26;;;;;;;4.85;1.23;;;;;;;;;;5039421;28;20033;-76
2022/06/13 03:49:56;;;;;;;6.60;1.40;;;;;;;;;;5029076;28;20605;-75
2022/06/13 03:52:23;;;;;;;4.45;1.30;;;;;;;;;;5023111;28;20854;-76
2022/06/13 03:55:09;;;;;;;4.90;1.40;;;;;;;;;;5006702;28;20042;-77
2022/06/13 03:57:35;;;;;;;3.95;1.48;;;;;;;;;;5032553;28;20049;-75
2022/06/13 04:00:08;;;;;;;4.78;1.23;;;;;;;;;;5027648;28;20040;-76
2022/06/13 04:02:35;;;;;;;4.15;1.58;;;;;;;;;;5039824;28;20120;-76
2022/06/13 04:05:00;;;;;;;2.92;1.35;;;;;;;;;;5007276;28;20033;-78
2022/06/13 04:07:29;;;;;;;5.25;1.52;;;;;;;;;;5023858;28;20122;-80
2022/06/13 04:10:17;;;;;;;4.97;1.40;;;;;;;;;;5021724;28;20075;-81
2022/06/13 04:13:06;;;;;;;4.70;1.40;;;;;;;;;;5005374;28;20049;-81
2022/06/13 04:15:48;;;;;;;6.90;1.55;;;;;;;;;;5027421;28;20511;-81
2022/06/13 04:18:42;;;;;;;4.32;1.20;;;;;;;;;;5009818;28;20045;-81
2022/06/13 04:21:14;;;;;;;3.40;1.23;;;;;;;;;;4998630;28;20041;-81
2022/06/13 04:24:03;;;;;;;9.70;1.33;;;;;;;;;;5017553;28;20045;-82
2022/06/13 04:26:42;;;;;;;5.13;1.10;;;;;;;;;;5006610;28;20033;-80
2022/06/13 04:29:08;;;;;;;6.07;1.48;;;;;;;;;;4999694;28;20405;-79
2022/06/13 04:31:34;;;;;;;6.35;1.42;;;;;;;;;;5021186;28;20119;-79
2022/06/13 04:34:02;;;;;;;5.70;1.40;;;;;;;;;;5002663;28;20029;-80
2022/06/13 04:36:30;;;;;;;5.88;1.50;;;;;;;;;;5004696;28;20062;-79
2022/06/13 04:38:58;;;;;;;8.02;1.70;;;;;;;;;;5007685;28;20033;-80
2022/06/13 04:41:26;;;;;;;4.93;1.25;;;;;;;;;;5018113;28;20072;-78
2022/06/13 04:43:54;;;;;;;6.30;1.48;;;;;;;;;;5008550;28;20091;-79
2022/06/13 04:46:21;;;;;;;5.00;1.35;;;;;;;;;;5024011;28;20037;-79
2022/06/13 04:48:50;;;;;;;8.18;2.05;;;;;;;;;;5001851;28;20049;-79
2022/06/13 04:51:21;;;;;;;5.55;1.40;;;;;;;;;;5008477;28;20037;-78
2022/06/13 04:54:11;;;;;;;4.15;1.17;;;;;;;;;;5012198;28;20128;-79
2022/06/13 04:56:37;;;;;;;4.43;1.38;;;;;;;;;;5020305;28;20132;-78
2022/06/13 04:59:03;;;;;;;4.53;1.15;;;;;;;;;;5020641;28;20865;-80
2022/06/13 05:01:34;;;;;;;5.18;1.40;;;;;;;;;;5026014;28;20038;-79
2022/06/13 05:04:05;;;;;;;4.53;1.48;;;;;;;;;;5023062;28;20403;-78
2022/06/13 05:06:35;;;;;;;3.97;1.20;;;;;;;;;;5022505;28;20467;-80
2022/06/13 05:09:04;;;;;;;5.25;1.40;;;;;;;;;;5020224;28;20396;-79
2022/06/13 05:11:36;;;;;;;4.25;1.30;;;;;;;;;;5002605;28;20043;-82
2022/06/13 05:14:09;;;;;;;5.65;1.55;;;;;;;;;;5034913;28;20033;-81
2022/06/13 05:16:57;;;;;;;4.28;1.15;;;;;;;;;;5021616;28;20040;-79
2022/06/13 05:19:41;;;;;;;6.07;1.40;;;;;;;;;;4999541;28;20042;-79
2022/06/13 05:22:37;;;;;;;4.50;1.02;;;;;;;;;;5019671;28;20374;-81
2022/06/13 05:25:21;;;;;;;3.67;1.20;;;;;;;;;;5016227;28;20800;-80
2022/06/13 05:27:46;;;;;;;3.88;1.00;;;;;;;;;;5019931;28;20509;-80
2022/06/13 05:30:16;;;;;;;3.90;1.20;;;;;;;;;;5018652;28;20037;-81
2022/06/13 05:32:43;;;;;;;4.75;1.10;;;;;;;;;;5027111;28;20041;-80
2022/06/13 05:35:20;;;;;;;5.22;1.48;;;;;;;;;;5011947;28;20395;-81
2022/06/13 05:37:45;;;;;;;8.10;1.50;;;;;;;;;;5025858;28;20037;-77
2022/06/13 05:40:17;;;;;;;6.25;1.35;;;;;;;;;;5018861;28;20041;-80
2022/06/13 05:42:43;;;;;;;6.65;1.45;;;;;;;;;;5000490;28;20049;-79
2022/06/13 05:45:14;;;;;;;4.47;1.10;;;;;;;;;;5017044;28;20037;-80
2022/06/13 05:47:41;;;;;;;3.95;1.50;;;;;;;;;;5007546;28;20037;-79
2022/06/13 05:50:16;;;;;;;5.55;1.33;;;;;;;;;;5014120;28;20391;-79
2022/06/13 05:52:42;;;;;;;5.60;1.80;;;;;;;;;;5005095;28;20129;-79
2022/06/13 05:55:10;;;;;;;3.92;1.27;;;;;;;;;;5006401;28;20133;-80
2022/06/13 05:57:36;;;;;;;5.53;1.33;;;;;;;;;;5023757;28;20040;-79
2022/06/13 06:00:03;;;;;;;4.65;1.25;;;;;;;;;;5007447;28;20445;-79
2022/06/13 06:02:28;;;;;;;4.63;1.15;;;;;;;;;;5009939;28;20201;-80
2022/06/13 06:04:53;;;;;;;3.78;1.05;;;;;;;;;;5019214;28;20033;-80
2022/06/13 06:07:19;;;;;;;4.78;1.17;;;;;;;;;;5016851;28;20048;-78
2022/06/13 06:09:44;;;;;;;5.72;1.10;;;;;;;;;;5016044;28;20038;-80
2022/06/13 06:12:09;;;;;;;3.92;1.15;;;;;;;;;;5001434;28;20042;-79
2022/06/13 06:14:35;;;;;;;4.60;1.00;;;;;;;;;;5012602;28;20043;-80
2022/06/13 06:17:00;;;;;;;6.53;1.10;;;;;;;;;;5016178;28;20037;-80
2022/06/13 06:19:26;;;;;;;3.67;1.10;;;;;;;;;;5005168;28;20129;-79
2022/06/13 06:21:51;;;;;;;5.13;1.33;;;;;;;;;;5017389;28;20030;-78
2022/06/13 06:24:17;;;;;;;5.00;1.05;;;;;;;;;;5005055;28;20041;-79
2022/06/13 06:26:43;;;;;;;8.05;1.50;;;;;;;;;;5010488;28;20045;-78
2022/06/13 06:29:08;;;;;;;6.65;1.30;;;;;;;;;;5022142;28;20076;-79
2022/06/13 06:31:34;;;;;;;5.25;1.30;;;;;;;;;;5010038;28;20508;-79
2022/06/13 06:34:19;;;;;;;4.35;1.13;;;;;;;;;;5007977;28;20038;-79
2022/06/13 06:36:45;;;;;;;5.55;1.10;;;;;;;;;;4966505;28;20541;-79
2022/06/13 06:39:10;;;;;;;3.67;1.10;;;;;;;;;;4949345;28;20108;-79
2022/06/13 06:41:35;;;;;;;6.88;1.10;;;;;;;;;;4967544;28;20460;-79
2022/06/13 06:44:01;;;;;;;3.92;1.35;;;;;;;;;;4951354;28;20135;-80
2022/06/13 06:46:26;;;;;;;4.75;1.10;;;;;;;;;;4981935;28;20045;-79
2022/06/13 06:48:52;;;;;;;4.75;1.35;;;;;;;;;;4949665;28;20405;-79
2022/06/13 06:51:18;;;;;;;5.88;1.30;;;;;;;;;;4965187;28;20165;-78
2022/06/13 07:01:56;;;;;;;5.80;1.40;;;;;;;;;;4953157;28;20154;-79
2022/06/13 07:04:21;;;;;;;4.57;1.15;;;;;;;;;;4946234;28;20173;-80
2022/06/13 07:06:47;;;;;;;5.70;1.27;;;;;;;;;;4974519;28;20046;-79
2022/06/13 07:09:12;;;;;;;3.67;1.23;;;;;;;;;;4982610;28;20039;-79
2022/06/13 07:11:53;;;;;;;4.93;1.33;;;;;;;;;;4979455;28;20046;-80
2022/06/13 07:14:30;;;;;;;3.15;1.00;;;;;;;;;;4983919;28;20428;-79
2022/06/13 07:17:00;;;;;;;3.63;0.95;;;;;;;;;;5014731;28;20037;-80
2022/06/13 07:19:25;;;;;;;3.47;1.02;;;;;;;;;;5004609;28;20064;-79
2022/06/13 07:21:51;;;;;;;3.15;1.00;;;;;;;;;;5023197;28;20030;-83
2022/06/13 07:24:16;;;;;;;4.55;1.23;;;;;;;;;;5019765;28;20033;-84
2022/06/13 07:26:42;;;;;;;6.45;1.33;;;;;;;;;;4998454;28;20093;-83
2022/06/13 07:29:08;;;;;;;4.07;1.10;;;;;;;;;;5003005;28;20045;-82
2022/06/13 07:31:40;;;;;;;3.25;1.08;;;;;;;;;;5014553;28;20033;-85
2022/06/13 07:34:09;;;;;;;3.15;0.80;;;;;;;;;;5025373;28;20527;-82
2022/06/13 07:36:35;;;;;;;3.17;0.70;;;;;;;;;;5009197;28;20496;-83
2022/06/13 07:39:00;;;;;;;3.35;1.00;;;;;;;;;;5023479;28;20049;-83
2022/06/13 07:41:26;;;;;;;3.85;0.90;;;;;;;;;;5013529;28;20030;-84
2022/06/13 07:43:52;;;;;;;3.67;1.02;;;;;;;;;;5019184;28;20083;-84
2022/06/13 07:46:20;;;;;;;4.38;1.20;;;;;;;;;;5019876;28;20114;-83
2022/06/13 07:48:48;;;;;;;3.05;0.85;;;;;;;;;;5002532;28;20423;-84
2022/06/13 07:51:13;;;;;;;;;;;;;;;;;;5015196;28;20175;-83
2022/06/13 07:53:38;;;;;;;3.83;0.90;;;;;;;;;;5019986;28;20019;-84
2022/06/13 07:56:04;;;;;;;3.08;0.95;;;;;;;;;;5009044;28;20693;-84
2022/06/13 07:58:33;;;;;;;2.58;0.90;;;;;;;;;;5008461;28;20143;-83
2022/06/13 08:00:58;;;;;;;3.97;1.15;;;;;;;;;;5002301;28;20136;-82
2022/06/13 08:03:27;;;;;;;3.22;0.93;;;;;;;;;;5008452;28;20120;-83
2022/06/13 08:05:53;;;;;;;3.95;0.73;;;;;;;;;;5003546;28;20072;-83
2022/06/13 08:08:18;;;;;;;4.07;1.00;;;;;;;;;;5009159;28;20116;-83
2022/06/13 08:10:44;;;;;;;2.45;0.70;;;;;;;;;;5018888;28;20045;-82
2022/06/13 08:13:14;;;;;;;2.22;0.80;;;;;;;;;;5012242;28;20038;-84
2022/06/13 08:15:39;;;;;;;2.90;0.70;;;;;;;;;;4998265;28;20033;-83
2022/06/13 08:18:05;;;;;;;4.70;0.90;;;;;;;;;;5006817;28;20045;-83
2022/06/13 08:20:30;;;;;;;4.00;1.00;;;;;;;;;;5021337;28;20139;-84
2022/06/13 08:22:58;;;;;;;8.32;1.35;;;;;;;;;;5017392;28;20492;-82
2022/06/13 08:25:27;;;;;;;6.18;1.40;;;;;;;;;;5018690;28;20115;-85
2022/06/13 08:27:58;;;;;;;7.35;0.80;;;;;;;;;;5022414;28;20048;-83
2022/06/13 08:30:38;;;;;;;3.78;1.02;;;;;;;;;;5011757;28;20057;-84
2022/06/13 08:33:04;;;;;;;4.05;0.93;;;;;;;;;;5012967;28;20041;-82
2022/06/13 08:35:29;;;;;;;3.45;0.82;;;;;;;;;;5022454;28;20040;-84
2022/06/13 08:37:55;;;;;;;3.28;0.80;;;;;;;;;;5023012;28;20607;-84
2022/06/13 08:40:20;;;;;;;2.83;0.70;;;;;;;;;;5006120;28;20430;-83
2022/06/13 08:42:50;;;;;;;4.80;0.80;;;;;;;;;;5038720;28;20412;-83
2022/06/13 08:45:33;;;;;;;5.15;0.98;;;;;;;;;;5018531;28;20090;-82
2022/06/13 08:48:05;;;;;;;4.90;0.80;;;;;;;;;;5021961;28;20115;-83
2022/06/13 08:50:38;;;;;;;4.82;1.13;;;;;;;;;;5018307;28;20509;-83
2022/06/13 08:53:09;;;;;;;5.05;0.93;;;;;;;;;;5009174;28;20385;-82
2022/06/13 08:55:44;;;;;;;3.97;1.10;;;;;;;;;;5010626;28;20044;-85
2022/06/13 08:58:30;;;;;;;5.03;1.00;;;;;;;;;;4996473;28;20560;-83
2022/06/13 09:01:07;;;;;;;5.70;1.10;;;;;;;;;;5002661;28;20141;-83
2022/06/13 09:03:48;;;;;;;3.60;0.90;;;;;;;;;;5007560;28;20065;-84
2022/06/13 09:06:17;;;;;;;5.18;0.93;;;;;;;;;;5017650;28;20033;-84
2022/06/13 09:08:59;;;;;;;7.25;1.40;;;;;;;;;;5012372;28;20045;-84
2022/06/13 09:11:31;;;;;;;5.60;1.17;;;;;;;;;;5015534;28;20540;-83
2022/06/13 09:14:02;;;;;;;3.60;0.93;;;;;;;;;;5023381;28;20618;-83
2022/06/13 09:16:33;;;;;;;4.78;1.17;;;;;;;;;;5003479;28;20845;-83
2022/06/13 09:19:13;;;;;;;3.97;1.10;;;;;;;;;;5023745;28;20164;-83
2022/06/13 09:21:46;;;;;;;4.72;0.95;;;;;;;;;;5006815;28;20580;-84
2022/06/13 09:24:23;;;;;;;6.72;1.30;;;;;;;;;;5016479;28;20478;-82
2022/06/13 09:26:59;;;;;;;4.38;1.10;;;;;;;;;;5015110;28;20116;-83
2022/06/13 09:29:31;;;;;;;6.38;1.40;;;;;;;;;;5014171;28;20061;-84
2022/06/13 09:32:10;;;;;;;6.32;1.30;;;;;;;;;;5015364;28;20404;-83
2022/06/13 09:34:41;;;;;;;7.18;1.58;;;;;;;;;;5016231;28;20100;-83
2022/06/13 09:37:11;;;;;;;6.60;1.48;;;;;;;;;;5015749;28;20046;-84
2022/06/13 09:39:37;;;;;;;6.15;1.17;;;;;;;;;;5015843;28;20076;-84
2022/06/13 09:42:14;;;;;;;5.28;1.30;;;;;;;;;;5000079;28;20037;-83
2022/06/13 09:45:10;;;;;;;4.53;1.20;;;;;;;;;;5023482;28;20041;-85
2022/06/13 09:47:50;;;;;;;4.18;1.17;;;;;;;;;;5013315;28;20049;-85
2022/06/13 09:50:46;;;;;;;3.92;0.98;;;;;;;;;;5013681;28;20497;-85
2022/06/13 09:53:33;;;;;;;5.03;1.30;;;;;;;;;;5018159;28;20042;-86
2022/06/13 09:56:08;;;;;;;4.57;1.13;;;;;;;;;;5013046;28;20042;-83
2022/06/13 09:58:40;;;;;;;2.95;0.80;;;;;;;;;;5009486;28;20037;-83
2022/06/13 10:01:15;;;;;;;3.83;0.80;;;;;;;;;;5015641;28;20542;-82
2022/06/13 10:03:46;;;;;;;2.17;0.60;;;;;;;;;;5022317;28;20041;-83
2022/06/13 10:06:12;;;;;;;3.30;0.80;;;;;;;;;;5014885;28;20602;-82
2022/06/13 10:09:06;;;;;;;2.40;0.70;;;;;;;;;;5022971;28;20124;-83
2022/06/13 10:11:43;;;;;;;4.13;0.98;;;;;;;;;;5015638;28;20701;-83
2022/06/13 10:14:24;;;;;;;6.07;1.15;;;;;;;;;;5016870;28;20117;-83
2022/06/13 10:17:10;;;;;;;5.43;1.00;;;;;;;;;;5017259;28;20048;-83
2022/06/13 10:19:47;;;;;;;2.83;0.70;;;;;;;;;;5013882;28;20054;-83
2022/06/13 10:22:15;;;;;;;3.78;0.90;;;;;;;;;;5013436;28;20047;-84
2022/06/13 10:24:47;;;;;;;4.85;0.80;;;;;;;;;;5005799;28;20454;-83
2022/06/13 10:27:30;;;;;;;5.75;0.80;;;;;;;;;;5018698;28;20661;-83
2022/06/13 10:30:04;;;;;;;5.78;0.70;;;;;;;;;;5012072;28;20076;-85
2022/06/13 10:33:03;;;;;;;4.45;0.90;;;;;;;;;;5021153;28;20524;-83
2022/06/13 10:35:28;;;;;;;5.28;1.13;;;;;;;;;;5014482;28;20041;-82
2022/06/13 10:38:28;;;;;;;2.50;0.83;;;;;;;;;;5022511;28;20541;-83
2022/06/13 10:40:53;;;;;;;4.00;0.77;;;;;;;;;;4963702;28;20278;-86
2022/06/13 10:43:19;;;;;;;6.65;0.98;;;;;;;;;;4949881;28;20039;-84
2022/06/13 10:45:45;;;;;;;5.00;0.88;;;;;;;;;;4964962;28;20030;-84
2022/06/13 10:48:30;;;;;;;3.47;0.60;;;;;;;;;;4950345;28;20113;-83
2022/06/13 10:50:58;;;;;;;3.28;0.70;;;;;;;;;;4966599;28;20104;-83
2022/06/13 11:03:28;;;;;;;3.88;0.73;;;;;;;;;;4978345;28;20259;-84
2022/06/13 11:06:01;;;;;;;4.57;0.80;;;;;;;;;;4948544;28;20034;-83
2022/06/13 11:08:28;;;;;;;6.05;0.90;;;;;;;;;;4959733;28;20041;-84
2022/06/13 11:10:58;;;;;;;3.55;0.63;;;;;;;;;;4961531;28;20038;-84
2022/06/13 11:13:37;;;;;;;2.42;0.73;;;;;;;;;;4966371;28;20140;-83
2022/06/13 11:22:37;;;;;;;5.03;1.00;;;;;;;;;;5012112;28;20044;-84
2022/06/13 11:25:10;;;;;;;5.30;0.70;;;;;;;;;;5002525;28;20508;-83
2022/06/13 11:27:39;;;;;;;2.17;0.70;;;;;;;;;;5012648;28;20073;-85
2022/06/13 11:30:16;;;;;;;2.60;0.57;;;;;;;;;;5009784;28;21031;-83
2022/06/13 11:32:42;;;;;;;;;;;;;;;;;;5015128;28;20099;-84
2022/06/13 11:35:27;;;;;;;4.17;0.83;;;;;;;;;;5017575;28;19916;-84
2022/06/13 11:37:53;;;;;;;2.72;0.70;;;;;;;;;;5011283;28;20277;-83
2022/06/13 11:40:25;;;;;;;3.65;0.77;;;;;;;;;;5015282;28;20045;-86
2022/06/13 11:42:52;;;;;;;6.68;0.90;;;;;;;;;;5007244;28;20467;-85
2022/06/13 11:45:23;;;;;;;3.47;0.80;;;;;;;;;;5004193;28;20477;-84
2022/06/13 11:47:49;;;;;;;4.90;1.08;;;;;;;;;;5007886;28;20121;-85
2022/06/13 11:50:23;;;;;;;3.65;0.82;;;;;;;;;;5005062;28;20087;-86
2022/06/13 11:55:49;;;;;;;3.15;0.80;;;;;;;;;;5026453;28;20434;-85
2022/06/13 11:58:23;;;;;;;4.18;0.80;;;;;;;;;;5022281;28;20497;-83
2022/06/13 12:00:54;;;;;;;6.65;0.95;;;;;;;;;;5007268;28;20096;-83
2022/06/13 12:03:23;;;;;;;4.65;0.73;;;;;;;;;;5018058;28;20034;-83
2022/06/13 12:05:56;;;;;;;2.92;0.73;;;;;;;;;;5000494;28;20073;-83
2022/06/13 12:08:24;;;;;;;3.65;0.68;;;;;;;;;;5020977;28;20045;-85
2022/06/13 12:10:55;;;;;;;4.45;0.93;;;;;;;;;;5005575;28;20175;-83
2022/06/13 12:13:22;;;;;;;5.15;0.90;;;;;;;;;;5020855;28;20037;-84
2022/06/13 12:15:59;;;;;;;4.63;1.08;;;;;;;;;;5014411;28;20508;-82
2022/06/13 12:18:52;;;;;;;8.45;1.42;;;;;;;;;;5018956;28;20053;-82
2022/06/13 12:21:33;;;;;;;5.38;0.80;;;;;;;;;;5034798;28;20450;-83
2022/06/13 12:24:29;;;;;;;5.95;1.30;;;;;;;;;;5037417;28;20487;-83
2022/06/13 12:27:27;;;;;;;6.38;0.88;;;;;;;;;;5040380;28;20040;-83
2022/06/13 12:30:01;;;;;;;5.90;0.90;;;;;;;;;;5002046;28;20046;-85
2022/06/13 12:32:49;;;;;;;2.42;0.57;;;;;;;;;;5016312;28;20029;-84
2022/06/13 12:35:26;;;;;;;5.60;1.10;;;;;;;;;;5023272;28;20487;-84
2022/06/13 12:38:30;;;;;;;3.15;1.25;;;;;;;;;;5023110;28;20037;-84
2022/06/13 12:41:14;;;;;;;3.17;0.80;;;;;;;;;;5022711;28;20468;-84
2022/06/13 12:44:21;;;;;;;2.03;0.60;;;;;;;;;;5035117;28;20046;-84
2022/06/13 12:47:05;;;;;;;3.65;0.70;;;;;;;;;;5024627;28;20042;-82
2022/06/13 12:49:58;;;;;;;3.25;0.85;;;;;;;;;;5036847;28;20045;-85
2022/06/13 12:52:30;;;;;;;3.17;0.95;;;;;;;;;;5038773;28;20044;-84
2022/06/13 12:55:01;;;;;;;3.88;0.88;;;;;;;;;;5020490;28;20045;-83
2022/06/13 12:57:39;;;;;;;3.60;0.85;;;;;;;;;;5018290;28;20599;-84
2022/06/13 13:00:18;;;;;;;;;;;;;;;;;;5035850;28;20091;-84
2022/06/13 13:03:09;;;;;;;3.33;0.73;;;;;;;;;;5012113;28;19962;-84
2022/06/13 13:05:58;;;;;;;2.60;0.50;;;;;;;;;;5016922;28;20057;-84
2022/06/13 13:08:50;;;;;;;5.43;0.85;;;;;;;;;;5011691;28;20064;-83
2022/06/13 13:11:28;;;;;;;4.03;1.17;;;;;;;;;;5009369;28;20115;-84
2022/06/13 13:14:04;;;;;;;2.97;0.95;;;;;;;;;;5010487;28;20041;-84
2022/06/13 13:16:39;;;;;;;3.60;0.60;;;;;;;;;;5036286;28;20044;-84
2022/06/13 13:19:35;;;;;;;2.45;0.85;;;;;;;;;;5018574;28;20144;-83
2022/06/13 13:22:13;;;;;;;3.70;0.90;;;;;;;;;;5016650;28;20035;-86
2022/06/13 13:25:08;;;;;;;2.30;0.70;;;;;;;;;;5019035;28;20044;-85
2022/06/13 13:27:47;;;;;;;2.65;0.80;;;;;;;;;;5002971;28;20124;-84
2022/06/13 13:30:33;;;;;;;3.10;0.80;;;;;;;;;;5015793;28;20037;-84
2022/06/13 13:32:59;;;;;;;2.75;0.60;;;;;;;;;;5022932;28;20508;-82
2022/06/13 13:35:34;;;;;;;3.03;0.98;;;;;;;;;;5033580;28;20107;-84
2022/06/13 13:38:08;;;;;;;2.20;0.60;;;;;;;;;;5020961;28;20052;-83
2022/06/13 13:40:41;;;;;;;2.92;1.17;;;;;;;;;;5038342;28;21197;-84
2022/06/13 13:43:22;;;;;;;4.10;0.80;;;;;;;;;;5035384;28;20037;-86
2022/06/13 13:46:02;;;;;;;1.88;0.75;;;;;;;;;;5009740;28;20040;-84
2022/06/13 13:48:39;;;;;;;2.17;0.63;;;;;;;;;;5022105;28;20041;-82
2022/06/13 13:51:19;;;;;;;2.88;0.73;;;;;;;;;;5006031;28;20049;-83
2022/06/13 13:53:55;;;;;;;1.95;0.63;;;;;;;;;;5036483;28;20573;-84
2022/06/13 13:56:29;;;;;;;3.20;0.60;;;;;;;;;;5020966;28;20039;-84
2022/06/13 13:58:56;;;;;;;2.22;0.80;;;;;;;;;;5020838;28;20036;-83
2022/06/13 14:01:22;;;;;;;1.90;0.60;;;;;;;;;;4999769;28;20051;-84
2022/06/13 14:03:57;;;;;;;5.32;1.05;;;;;;;;;;5035984;28;20052;-83
2022/06/13 14:06:33;;;;;;;2.33;0.60;;;;;;;;;;5035079;28;20441;-83
2022/06/13 14:08:59;;;;;;;1.33;0.50;;;;;;;;;;5009618;28;20120;-84
2022/06/13 14:11:25;;;;;;;1.67;0.60;;;;;;;;;;5017940;28;20148;-83
2022/06/13 14:14:00;;;;;;;2.40;0.63;;;;;;;;;;5037081;28;20040;-84
2022/06/13 14:16:26;;;;;;;2.13;0.60;;;;;;;;;;5018547;28;20499;-84
2022/06/13 14:19:02;;;;;;;2.45;0.60;;;;;;;;;;5035396;28;20037;-84
2022/06/13 14:21:34;;;;;;;2.53;0.73;;;;;;;;;;5007940;28;20084;-84
2022/06/13 14:24:14;;;;;;;4.22;0.73;;;;;;;;;;5034515;28;20409;-83
2022/06/13 14:26:39;;;;;;;5.60;1.17;;;;;;;;;;5006063;28;20079;-84
2022/06/13 14:29:09;;;;;;;3.75;1.02;;;;;;;;;;5035528;28;20049;-85
2022/06/13 14:32:06;;;;;;;2.83;0.95;;;;;;;;;;5019343;28;20047;-84
2022/06/13 14:35:11;;;;;;;3.08;0.70;;;;;;;;;;5035589;28;20812;-84
2022/06/13 14:37:42;;;;;;;1.83;0.68;;;;;;;;;;5033657;28;20045;-85
2022/06/13 14:40:13;;;;;;;2.33;0.60;;;;;;;;;;5033439;28;20500;-82
2022/06/13 14:42:51;;;;;;;1.60;0.50;;;;;;;;;;5034048;28;20040;-86
2022/06/13 14:45:36;;;;;;;2.83;0.70;;;;;;;;;;5035175;28;20037;-84
2022/06/13 14:48:14;;;;;;;3.13;0.73;;;;;;;;;;5034798;28;20095;-83
2022/06/13 14:50:42;;;;;;;4.78;1.38;;;;;;;;;;5032965;28;20041;-83
2022/06/13 14:53:34;;;;;;;2.60;0.55;;;;;;;;;;5032766;28;20045;-81
2022/06/13 14:56:25;;;;;;;3.78;1.02;;;;;;;;;;5018634;28;20112;-84
2022/06/13 14:58:50;;;;;;;2.83;0.65;;;;;;;;;;5033657;28;20046;-84
2022/06/13 15:01:29;;;;;;;9.20;1.15;;;;;;;;;;5035061;28;20522;-83
2022/06/13 15:04:03;;;;;;;1.63;0.55;;;;;;;;;;5034891;28;20034;-83
2022/06/13 15:06:32;;;;;;;3.38;0.75;;;;;;;;;;5036164;28;20499;-85
2022/06/13 15:09:00;;;;;;;2.65;0.65;;;;;;;;;;5035390;28;20066;-85
2022/06/13 15:11:26;;;;;;;2.55;0.50;;;;;;;;;;5028067;28;20567;-84
2022/06/13 15:13:51;;;;;;;1.08;0.32;;;;;;;;;;5010098;28;20037;-86
2022/06/13 15:16:16;;;;;;;1.40;0.30;;;;;;;;;;5019524;28;20392;-86
2022/06/13 15:18:54;;;;;;;1.95;0.50;;;;;;;;;;5020948;28;20041;-84
2022/06/13 15:21:20;;;;;;;1.27;0.40;;;;;;;;;;5007250;28;20068;-84
2022/06/13 15:23:48;;;;;;;0.77;0.40;;;;;;;;;;5022611;28;20045;-85
2022/06/13 15:26:26;;;;;;;2.55;0.50;;;;;;;;;;5019454;28;20037;-85
2022/06/13 15:29:03;;;;;;;2.15;0.40;;;;;;;;;;5003986;28;20970;-84
2022/06/13 15:31:30;;;;;;;1.02;0.38;;;;;;;;;;5033357;28;20083;-85
2022/06/13 15:34:19;;;;;;;2.20;0.50;;;;;;;;;;5015138;28;20491;-83
2022/06/13 15:36:54;;;;;;;1.83;0.40;;;;;;;;;;4998069;28;20049;-85
2022/06/13 15:39:20;;;;;;;2.13;0.40;;;;;;;;;;5022695;28;20125;-85
2022/06/13 15:41:53;;;;;;;2.72;0.50;;;;;;;;;;5014437;28;20041;-85
2022/06/13 15:44:22;;;;;;;7.40;0.60;;;;;;;;;;5001362;28;20043;-85
2022/06/13 15:46:51;;;;;;;1.52;0.40;;;;;;;;;;5020477;28;20025;-84
2022/06/13 15:49:19;;;;;;;1.77;0.50;;;;;;;;;;5008795;28;20060;-84